createdAt,value
2023-04-06T00:01:15.826Z,8
2023-04-06T00:06:57.287Z,7.8
2023-04-06T00:11:57.309Z,7.6
2023-04-06T00:17:15.853Z,7.5
2023-04-06T00:22:57.300Z,7.1
2023-04-06T00:27:57.310Z,6.9
2023-04-06T00:33:15.832Z,6.8
2023-04-06T00:38:57.312Z,6.6
2023-04-06T00:44:15.824Z,6.3
2023-04-06T00:49:15.828Z,6.4
2023-04-06T00:54:15.839Z,6.3
2023-04-06T00:59:57.340Z,6.4
2023-04-06T01:05:15.846Z,6.5
2023-04-06T01:10:57.298Z,6.4
2023-04-06T01:15:57.344Z,6.1
2023-04-06T01:21:15.865Z,6.2
2023-04-06T01:26:57.317Z,6
2023-04-06T01:32:15.819Z,6.4
2023-04-06T01:37:57.294Z,6.3
2023-04-06T01:43:15.799Z,6.2
2023-04-06T01:48:15.829Z,6.3
2023-04-06T01:53:15.833Z,6.1
2023-04-06T01:58:57.350Z,6.1
2023-04-06T02:03:57.346Z,5.8
2023-04-06T02:09:15.799Z,5.9
2023-04-06T02:14:15.820Z,4.9
2023-04-06T02:19:15.812Z,5.7
2023-04-06T02:24:57.294Z,5.5
2023-04-06T02:29:57.287Z,6
2023-04-06T02:34:57.285Z,6
2023-04-06T02:39:57.293Z,5.8
2023-04-06T02:45:15.838Z,5.6
2023-04-06T02:50:57.294Z,5.6
2023-04-06T03:01:15.865Z,5.7
2023-04-06T03:06:58.781Z,5.7
2023-04-06T03:12:15.795Z,6
2023-04-06T03:17:15.798Z,6
2023-04-06T03:22:15.819Z,5.9
2023-04-06T03:27:15.820Z,6
2023-04-06T03:32:15.835Z,6
2023-04-06T03:37:57.301Z,6
2023-04-06T03:43:15.784Z,6
2023-04-06T03:48:15.810Z,5.8
2023-04-06T03:53:57.314Z,5.9
2023-04-06T03:59:15.836Z,6.1
2023-04-06T04:04:57.295Z,6.1
2023-04-06T04:10:15.780Z,5.9
2023-04-06T04:15:15.812Z,5.9
2023-04-06T04:20:57.288Z,5.7
2023-04-06T04:26:15.804Z,5.9
2023-04-06T04:31:15.809Z,5.8
2023-04-06T04:36:57.291Z,5.9
2023-04-06T04:42:15.828Z,5.7
2023-04-06T04:47:57.343Z,5.7
2023-04-06T04:52:57.331Z,5.6
2023-04-06T04:58:15.848Z,5.7
2023-04-06T05:03:25.949Z,5.7
2023-04-06T05:08:57.341Z,5.4
2023-04-06T05:14:11.356Z,5.6
2023-04-06T05:19:11.809Z,5.4
2023-04-06T05:24:15.795Z,5.4
2023-04-06T05:29:15.841Z,5.3
2023-04-06T05:34:57.301Z,5.3
2023-04-06T05:40:15.807Z,5.3
2023-04-06T05:45:57.265Z,5.2
2023-04-06T05:51:15.796Z,5.1
2023-04-06T05:56:57.277Z,5.3
2023-04-06T06:02:15.826Z,5.2
2023-04-06T06:07:15.789Z,5.3
2023-04-06T06:12:57.294Z,5.7
2023-04-06T06:18:15.816Z,6.2
2023-04-06T06:23:57.253Z,6.8
2023-04-06T06:28:57.326Z,6.9
2023-04-06T06:34:15.799Z,6.3
2023-04-06T06:39:57.267Z,6.8
2023-04-06T06:44:57.285Z,7.5
2023-04-06T06:49:57.299Z,8
2023-04-06T06:55:15.787Z,8.2
2023-04-06T07:00:15.791Z,8.4
2023-04-06T07:05:57.311Z,8.8
2023-04-06T07:11:15.796Z,9.3
2023-04-06T07:16:57.280Z,9.2
2023-04-06T07:21:57.297Z,9.7
2023-04-06T07:27:15.765Z,9.7
2023-04-06T07:32:15.955Z,10.1
2023-04-06T07:38:13.504Z,10
2023-04-06T07:43:15.798Z,10.8
2023-04-06T07:48:57.264Z,11.4
2023-04-06T07:53:57.279Z,11.6
2023-04-06T07:59:15.838Z,12.1
2023-04-06T08:04:57.344Z,12.6
2023-04-06T08:10:15.796Z,13
2023-04-06T08:15:15.801Z,13.9
2023-04-06T08:20:57.280Z,14.5
2023-04-06T08:26:15.804Z,14.7
2023-04-06T08:31:57.270Z,15.1
2023-04-06T08:36:57.266Z,14.2
2023-04-06T08:42:15.796Z,13.4
2023-04-06T08:47:57.293Z,13
2023-04-06T08:53:15.783Z,14.6
2023-04-06T08:58:57.395Z,15.5
2023-04-06T09:04:16.308Z,15.5
2023-04-06T09:09:57.249Z,14.7
2023-04-06T09:14:57.318Z,14.2
2023-04-06T09:20:15.799Z,15.3
2023-04-06T09:25:15.810Z,16.5
2023-04-06T09:30:57.345Z,16.7
2023-04-06T09:36:15.835Z,16.6
2023-04-06T09:41:57.334Z,15.9
2023-04-06T09:47:00.767Z,16.2
2023-04-06T09:51:57.307Z,15.2
2023-04-06T09:57:15.819Z,16.5
2023-04-06T10:02:15.814Z,17
2023-04-06T10:08:00.864Z,17.8
2023-04-06T10:13:15.813Z,17.7
2023-04-06T10:18:57.274Z,17.4
2023-04-06T10:24:15.814Z,17.8
2023-04-06T10:29:15.956Z,17.9
2023-04-06T10:34:57.288Z,17.2
2023-04-06T10:39:57.295Z,17.4
2023-04-06T10:44:57.319Z,18.2
2023-04-06T10:50:15.846Z,16.8
2023-04-06T10:55:57.301Z,16.9
2023-04-06T11:00:57.306Z,16.9
2023-04-06T11:05:57.315Z,17.4
2023-04-06T11:11:15.855Z,16.8
2023-04-06T11:16:57.338Z,16.6
2023-04-06T11:21:59.852Z,17.1
2023-04-06T11:27:15.811Z,16.8
2023-04-06T11:32:15.839Z,17.5
2023-04-06T11:37:58.620Z,17.1
2023-04-06T11:43:16.042Z,17.3
2023-04-06T11:48:57.381Z,17.3
2023-04-06T11:54:15.847Z,16.7
2023-04-06T11:59:25.885Z,17.4
2023-04-06T12:04:57.527Z,17
2023-04-06T12:09:57.672Z,16
2023-04-06T12:14:57.323Z,16.2
2023-04-06T12:20:25.975Z,16.1
2023-04-06T12:25:15.850Z,16.5
2023-04-06T12:30:15.862Z,16.3
2023-04-06T12:35:57.294Z,16.1
2023-04-06T12:40:57.293Z,16.1
2023-04-06T12:45:57.336Z,16
2023-04-06T12:51:15.836Z,15.9
2023-04-06T12:56:57.320Z,15.9
2023-04-06T13:01:57.369Z,15.6
2023-04-06T13:06:57.361Z,16.2
2023-04-06T13:12:15.872Z,16.2
2023-04-06T13:17:57.366Z,15.5
2023-04-06T13:22:57.353Z,15.8
2023-04-06T13:28:15.879Z,15.4
2023-04-06T13:33:57.324Z,15.5
2023-04-06T13:39:15.939Z,15.1
2023-04-06T13:44:57.368Z,15.5
2023-04-06T13:50:15.867Z,14.4
2023-04-06T13:55:57.348Z,14.8
2023-04-06T14:00:57.478Z,14.5
2023-04-06T14:06:29.642Z,14.5
2023-04-06T14:11:15.856Z,13.3
2023-04-06T14:16:15.896Z,13.2
2023-04-06T14:21:57.257Z,13
2023-04-06T14:26:57.359Z,13.3
2023-04-06T14:32:15.875Z,13.1
2023-04-06T14:37:15.876Z,12.7
2023-04-06T14:42:57.334Z,12.8
2023-04-06T14:47:57.378Z,12.8
2023-04-06T14:53:15.894Z,11.3
2023-04-06T14:59:09.101Z,11.3
2023-04-06T15:04:15.960Z,10.9
2023-04-06T15:09:15.893Z,11.1
2023-04-06T15:14:57.339Z,9.4
2023-04-06T15:20:15.888Z,8.1
2023-04-06T15:25:57.356Z,8.1
2023-04-06T15:31:28.342Z,8.1
2023-04-06T15:36:57.442Z,7.9
2023-04-06T15:42:15.925Z,7
2023-04-06T15:48:15.839Z,7
2023-04-06T15:53:15.908Z,6.9
2023-04-06T15:58:57.389Z,6
2023-04-06T16:03:57.490Z,5.6
2023-04-06T16:09:15.905Z,4.6
2023-04-06T16:14:57.346Z,3.1
2023-04-06T16:19:57.363Z,3.3
2023-04-06T16:25:15.888Z,2.9
2023-04-06T16:30:15.900Z,2.7
2023-04-06T16:35:57.373Z,2.7
2023-04-06T16:41:15.890Z,2.1
2023-04-06T16:46:15.952Z,1
2023-04-06T16:51:57.417Z,0
2023-04-06T16:57:15.945Z,0
2023-04-06T17:02:57.480Z,0
2023-04-06T17:08:15.866Z,0
2023-04-06T17:13:57.410Z,0
2023-04-06T17:18:57.398Z,0
2023-04-06T17:24:15.897Z,0
2023-04-06T17:29:15.889Z,0
2023-04-06T17:34:15.953Z,0
2023-04-06T17:39:57.409Z,0
2023-04-06T17:44:57.356Z,0
2023-04-06T17:50:15.958Z,0
2023-04-06T17:55:57.364Z,0
2023-04-06T18:00:57.367Z,0
2023-04-06T18:06:15.912Z,0
2023-04-06T18:11:57.350Z,0
2023-04-06T18:17:15.899Z,0
2023-04-06T18:22:57.360Z,0
2023-04-06T18:27:57.375Z,0
2023-04-06T18:32:57.378Z,0
2023-04-06T18:38:15.975Z,0
2023-04-06T18:43:15.911Z,0
2023-04-06T18:48:57.379Z,0
2023-04-06T18:54:15.895Z,0
2023-04-06T18:59:15.882Z,0
2023-04-06T19:04:57.553Z,0
2023-04-06T19:10:15.981Z,0
2023-04-06T19:15:57.361Z,0
2023-04-06T19:20:57.383Z,0
2023-04-06T19:26:15.858Z,0
2023-04-06T19:31:15.884Z,0
2023-04-06T19:36:57.344Z,0
2023-04-06T19:41:57.372Z,0
2023-04-06T19:46:57.404Z,0
2023-04-06T19:52:15.894Z,0
2023-04-06T19:57:57.341Z,0
2023-04-06T20:02:57.618Z,0
2023-04-06T20:08:15.893Z,0
2023-04-06T20:13:15.897Z,0
2023-04-06T20:18:15.895Z,0
2023-04-06T20:23:57.358Z,0
2023-04-06T20:29:15.901Z,0
2023-04-06T20:34:16.132Z,0
2023-04-06T20:39:57.366Z,0
2023-04-06T20:45:15.901Z,0
2023-04-06T20:50:15.904Z,0
2023-04-06T20:55:57.381Z,0
2023-04-06T21:00:57.401Z,0
2023-04-06T21:06:15.907Z,0
2023-04-06T21:11:57.399Z,0
2023-04-06T21:16:57.405Z,0
2023-04-06T21:22:15.899Z,0
2023-04-06T21:27:57.368Z,0
2023-04-06T21:33:15.895Z,0
2023-04-06T21:38:15.918Z,0
2023-04-06T21:43:57.372Z,0
2023-04-06T21:49:15.895Z,0
2023-04-06T21:54:15.997Z,0
2023-04-06T21:59:57.352Z,0
2023-04-06T22:04:57.429Z,0
2023-04-06T22:09:57.388Z,0
2023-04-06T22:15:15.890Z,0
2023-04-06T22:20:15.906Z,0
2023-04-06T22:25:57.379Z,0
2023-04-06T22:31:15.904Z,0
2023-04-06T22:36:57.355Z,0
2023-04-06T22:42:15.877Z,0
2023-04-06T22:47:15.910Z,0
2023-04-06T22:52:57.370Z,0
2023-04-06T22:57:57.386Z,0
2023-04-06T23:03:15.931Z,0
2023-04-06T23:08:57.398Z,0
2023-04-06T23:14:16.118Z,0
2023-04-06T23:19:57.362Z,0
2023-04-06T23:24:57.376Z,0
2023-04-06T23:30:15.879Z,0
2023-04-06T23:35:15.875Z,0
2023-04-06T23:40:15.907Z,0
2023-04-06T23:45:57.429Z,0
2023-04-06T23:51:19.520Z,0
2023-04-06T23:56:57.389Z,0
